createdAt,value
2023-01-20T00:06:47.246Z,27.40
2023-01-20T00:30:16.852Z,27.97
2023-01-20T00:55:59.186Z,26.60
2023-01-20T01:16:08.392Z,25.80
2023-01-20T02:01:07.102Z,23.43
2023-01-20T02:26:46.635Z,22.40
2023-01-20T03:07:02.002Z,25.97
2023-01-20T03:17:41.074Z,24.83
2023-01-20T03:58:18.226Z,28.50
2023-01-20T04:28:39.503Z,29.60
2023-01-20T04:53:24.822Z,27.17
2023-01-20T06:03:36.316Z,21.03
2023-01-20T07:04:19.950Z,24.00
2023-01-20T07:29:28.019Z,25.37
2023-01-20T09:19:20.075Z,17.80
2023-01-20T09:54:26.930Z,16.40
2023-01-20T10:20:16.090Z,16.90
2023-01-20T10:34:56.761Z,18.05
2023-01-20T11:42:30.538Z,14.63
2023-01-20T12:17:43.859Z,16.60
2023-01-20T12:53:39.057Z,16.33
2023-01-20T13:23:38.143Z,11.63
2023-01-20T14:19:09.349Z,11.07
2023-01-20T14:54:36.586Z,15.03
2023-01-20T15:15:31.793Z,14.80
2023-01-20T15:55:34.142Z,15.17
2023-01-20T16:26:12.948Z,11.73
2023-01-20T17:47:00.587Z,10.93
2023-01-20T18:12:58.054Z,12.23
2023-01-20T18:17:18.268Z,11.93
2023-01-20T18:38:18.205Z,10.53
2023-01-20T19:13:44.035Z,10.07
2023-01-20T19:38:24.720Z,9.00
2023-01-20T20:04:01.124Z,8.87
2023-01-20T20:49:51.112Z,9.00
2023-01-20T21:15:23.730Z,6.27
2023-01-20T21:50:31.168Z,9.07
2023-01-20T22:21:04.973Z,6.20
2023-01-20T22:51:28.370Z,6.67
2023-01-20T23:21:57.727Z,8.27
2023-01-20T23:47:25.237Z,10.50
